Time;durP1;ratioP1;P1;durP2;ratioP2;P2;SDS_P1;SDS_P2;PMS_P1;PMS_P2;Temp;Humidity;BMP_temperature;BMP_pressure;BME280_temperature;BME280_humidity;BME280_pressure;Samples;Min_cycle;Max_cycle;Signal;HPM_P1;HPM_P2
2021/10/19 00:04:20;;;;;;;;;;;5.80;99.90;;;4.37;100.00;96511.16;10575223;28;1941;-72
2021/10/19 00:09:23;;;;;;;;;;;5.70;99.90;;;4.39;100.00;96507.25;10573987;28;1960;-73
2021/10/19 00:14:26;;;;;;;;;;;5.70;99.90;;;4.43;100.00;96500.47;10567882;27;2248;-73
2021/10/19 00:19:29;;;;;;;;;;;5.70;99.90;;;4.50;100.00;96495.06;10566777;28;1842;-73
2021/10/19 00:24:36;;;;;;;;;;;5.70;99.90;;;4.60;100.00;96498.06;10573227;28;1970;-73
2021/10/19 00:29:39;;;;;;;;;;;5.80;99.90;;;4.68;100.00;96492.47;10573916;28;1910;-73
2021/10/19 00:34:42;;;;;;;;;;;5.80;99.90;;;4.69;100.00;96486.09;10567889;27;1975;-73
2021/10/19 00:39:45;;;;;;;;;;;5.80;99.90;;;4.77;100.00;96483.19;10575572;27;1899;-75
2021/10/19 00:44:48;;;;;;;;;;;5.90;99.90;;;4.77;100.00;96479.69;10564956;28;1834;-74
2021/10/19 00:49:51;;;;;;;;;;;6.00;99.90;;;4.82;100.00;96472.66;10570155;27;2033;-74
2021/10/19 00:54:53;;;;;;;;;;;6.00;99.90;;;4.90;100.00;96479.56;10573316;28;1987;-74
2021/10/19 00:59:56;;;;;;;;;;;6.10;99.90;;;4.91;100.00;96483.84;10574610;28;1926;-74
2021/10/19 01:04:59;;;;;;;;;;;6.10;99.90;;;4.97;100.00;96471.50;10568367;27;1831;-74
2021/10/19 01:10:02;;;;;;;;;;;6.20;99.90;;;4.96;100.00;96472.53;10570796;28;1914;-73
2021/10/19 01:15:15;;;;;;;;;;;6.20;99.90;;;4.94;100.00;96463.94;10550740;28;1974;-74
2021/10/19 01:20:19;;;;;;;;;;;6.20;99.90;;;4.93;100.00;96463.13;10568919;27;1913;-73
2021/10/19 01:25:41;;;;;;;;;;;6.20;99.90;;;4.83;100.00;96474.28;10567385;28;1823;-74
2021/10/19 01:30:54;;;;;;;;;;;6.10;99.90;;;4.83;100.00;96471.63;10555750;28;1871;-74
2021/10/19 01:36:17;;;;;;;;;;;6.10;99.90;;;4.79;100.00;96477.63;10567196;28;1918;-74
2021/10/19 01:41:20;;;;;;;;;;;6.10;99.90;;;4.72;100.00;96471.56;10572748;28;1851;-73
2021/10/19 01:46:23;;;;;;;;;;;6.10;99.90;;;4.63;100.00;96476.31;10565455;28;1859;-72
2021/10/19 01:51:26;;;;;;;;;;;6.00;99.90;;;4.56;100.00;96467.59;10569603;28;2063;-73
2021/10/19 01:56:29;;;;;;;;;;;5.90;99.90;;;4.46;100.00;96465.44;10569838;27;2074;-73
2021/10/19 02:01:32;;;;;;;;;;;5.80;99.90;;;4.38;100.00;96470.19;10568577;28;2058;-73
2021/10/19 02:06:35;;;;;;;;;;;5.80;99.90;;;4.38;100.00;96460.34;10566738;28;2133;-73
2021/10/19 02:11:40;;;;;;;;;;;5.70;99.90;;;4.33;100.00;96460.22;10570231;28;2062;-74
2021/10/19 02:16:42;;;;;;;;;;;5.70;99.90;;;4.29;100.00;96461.66;10563177;28;2004;-74
2021/10/19 02:21:45;;;;;;;;;;;5.60;99.90;;;4.26;100.00;96452.28;10565429;28;2011;-73
2021/10/19 02:26:48;;;;;;;;;;;5.50;99.90;;;4.22;100.00;96448.41;10565371;28;2157;-74
2021/10/19 02:31:51;;;;;;;;;;;5.50;99.90;;;4.22;100.00;96439.63;10570293;28;2747;-74
2021/10/19 02:36:55;;;;;;;;;;;5.60;99.90;;;4.22;100.00;96437.78;10561715;28;2066;-74
2021/10/19 02:41:58;;;;;;;;;;;5.50;99.90;;;4.21;100.00;96430.81;10566838;28;1937;-74
2021/10/19 02:47:01;;;;;;;;;;;5.50;99.90;;;4.29;100.00;96416.44;10566937;28;2158;-72
2021/10/19 02:52:03;;;;;;;;;;;5.50;99.90;;;4.40;100.00;96417.56;10567785;28;2067;-73
2021/10/19 02:57:08;;;;;;;;;;;5.60;99.90;;;4.36;100.00;96413.72;10547155;28;2081;-73
2021/10/19 03:02:11;;;;;;;;;;;5.60;99.90;;;4.25;100.00;96413.38;10569431;28;2046;-73
2021/10/19 03:07:14;;;;;;;;;;;5.60;99.90;;;4.18;100.00;96406.47;10567375;28;2030;-73
2021/10/19 03:12:17;;;;;;;;;;;5.50;99.90;;;4.18;100.00;96401.16;10569986;28;2035;-73
2021/10/19 03:17:19;;;;;;;;;;;5.40;99.90;;;4.18;100.00;96417.13;10565009;28;1909;-74
2021/10/19 03:22:22;;;;;;;;;;;5.40;99.90;;;4.21;100.00;96416.72;10576834;28;2321;-72
2021/10/19 03:27:25;;;;;;;;;;;5.40;99.90;;;4.23;100.00;96425.28;10561027;28;2130;-75
2021/10/19 03:32:28;;;;;;;;;;;5.50;99.90;;;4.22;100.00;96423.66;10578600;28;2074;-73
2021/10/19 03:37:31;;;;;;;;;;;5.50;99.90;;;4.22;100.00;96424.47;10573706;28;1940;-72
2021/10/19 03:42:35;;;;;;;;;;;5.50;99.90;;;4.21;100.00;96435.34;10575562;28;2078;-73
2021/10/19 03:47:37;;;;;;;;;;;5.50;99.90;;;4.18;100.00;96430.44;10555855;28;2080;-74
2021/10/19 03:52:40;;;;;;;;;;;5.50;99.90;;;4.15;100.00;96434.34;10558564;28;2037;-74
2021/10/19 03:57:43;;;;;;;;;;;5.40;99.90;;;4.14;100.00;96430.06;10568146;28;1976;-74
2021/10/19 04:02:46;;;;;;;;;;;5.40;99.90;;;4.17;100.00;96439.44;10574303;28;2004;-74
2021/10/19 04:07:49;;;;;;;;;;;5.40;99.90;;;4.10;100.00;96431.53;10574891;28;2471;-73
2021/10/19 04:12:52;;;;;;;;;;;5.40;99.90;;;4.07;100.00;96442.59;10571297;28;2034;-74
2021/10/19 04:17:55;;;;;;;;;;;5.40;99.90;;;4.12;100.00;96455.25;10552810;28;2188;-74
2021/10/19 04:22:58;;;;;;;;;;;5.40;99.90;;;4.09;100.00;96461.81;10580325;27;2011;-72
2021/10/19 04:28:01;;;;;;;;;;;5.40;99.90;;;4.13;100.00;96489.63;10574148;28;2014;-74
2021/10/19 04:33:04;;;;;;;;;;;5.30;99.90;;;4.12;100.00;96495.16;10570467;28;2035;-74
2021/10/19 04:38:07;;;;;;;;;;;5.50;99.90;;;4.09;100.00;96493.75;10575454;27;2050;-73
2021/10/19 04:43:09;;;;;;;;;;;5.40;99.90;;;4.11;100.00;96491.69;10568456;28;2035;-73
2021/10/19 04:48:14;;;;;;;;;;;5.40;99.90;;;4.17;100.00;96485.50;10571939;28;2039;-74
2021/10/19 04:53:17;;;;;;;;;;;5.40;99.90;;;4.21;100.00;96481.38;10572338;27;2135;-74
2021/10/19 04:58:20;;;;;;;;;;;5.40;99.90;;;4.22;100.00;96471.56;10546215;28;2089;-73
2021/10/19 05:03:23;;;;;;;;;;;5.40;99.90;;;4.20;100.00;96469.13;10569769;27;2102;-73
2021/10/19 05:08:26;;;;;;;;;;;5.50;99.90;;;4.20;100.00;96462.97;10578142;27;1081;-73
2021/10/19 05:13:33;;;;;;;;;;;5.40;99.90;;;4.25;100.00;96471.91;10574654;28;1479;-74
2021/10/19 05:18:36;;;;;;;;;;;5.50;99.90;;;4.32;100.00;96475.34;10573436;28;1985;-73
2021/10/19 05:23:39;;;;;;;;;;;5.50;99.90;;;4.47;100.00;96471.56;10572440;28;1513;-73
2021/10/19 05:28:42;;;;;;;;;;;5.70;99.90;;;4.59;100.00;96457.31;10571106;28;1948;-74
2021/10/19 05:33:45;;;;;;;;;;;5.70;99.90;;;4.70;100.00;96463.75;10570419;28;1935;-74
2021/10/19 05:38:48;;;;;;;;;;;5.80;99.90;;;4.83;100.00;96465.47;10573625;28;1972;-74
2021/10/19 05:43:51;;;;;;;;;;;5.90;99.90;;;4.99;100.00;96472.09;10569183;28;2036;-73
2021/10/19 05:48:56;;;;;;;;;;;6.00;99.90;;;5.15;100.00;96471.50;10566581;28;1882;-73
2021/10/19 05:53:59;;;;;;;;;;;6.10;99.90;;;5.34;100.00;96467.81;10568593;28;1922;-74
2021/10/19 05:59:02;;;;;;;;;;;6.30;99.90;;;5.51;100.00;96457.34;10556712;27;1983;-72
2021/10/19 06:04:05;;;;;;;;;;;6.50;99.90;;;5.70;100.00;96452.78;10564652;27;1934;-73
2021/10/19 06:09:08;;;;;;;;;;;6.70;99.90;;;5.92;100.00;96461.94;10565717;28;2038;-72
2021/10/19 06:14:11;;;;;;;;;;;6.90;99.90;;;6.12;100.00;96455.50;10571331;28;1905;-73
2021/10/19 06:19:14;;;;;;;;;;;7.10;99.90;;;6.36;100.00;96457.19;10568530;28;1988;-74
2021/10/19 06:24:17;;;;;;;;;;;7.30;99.90;;;6.50;100.00;96445.25;10568595;27;1979;-72
2021/10/19 06:29:20;;;;;;;;;;;7.40;99.90;;;6.62;100.00;96452.44;10570986;28;1918;-74
2021/10/19 06:34:23;;;;;;;;;;;7.60;99.90;;;6.79;100.00;96445.34;10570551;27;2087;-74
2021/10/19 06:39:26;;;;;;;;;;;7.70;99.90;;;7.10;100.00;96451.38;10569786;28;1983;-74
2021/10/19 06:44:29;;;;;;;;;;;7.90;99.90;;;7.29;100.00;96439.47;10565588;28;3255;-74
2021/10/19 06:49:47;;;;;;;;;;;8.20;99.90;;;7.53;100.00;96451.72;10568144;28;2391;-73
2021/10/19 06:54:50;;;;;;;;;;;8.40;99.90;;;7.77;100.00;96457.00;10554277;28;1862;-75
2021/10/19 06:59:53;;;;;;;;;;;8.50;99.90;;;8.07;100.00;96457.56;10572009;28;2310;-74
2021/10/19 07:04:56;;;;;;;;;;;8.80;99.90;;;8.38;99.57;96464.28;10565751;27;2052;-72
2021/10/19 07:10:00;;;;;;;;;;;9.10;99.90;;;8.68;99.51;96475.75;10573104;28;1952;-74
2021/10/19 07:15:07;;;;;;;;;;;9.30;99.90;;;8.92;93.37;96469.16;10565199;28;2369;-74
2021/10/19 07:20:19;;;;;;;;;;;9.60;99.90;;;9.32;90.92;96457.34;10546258;28;1978;-73
2021/10/19 07:25:22;;;;;;;;;;;9.90;99.90;;;9.67;87.97;96455.13;10568120;28;2384;-72
2021/10/19 07:30:25;;;;;;;;;;;10.20;99.90;;;9.94;85.22;96454.34;10564450;28;1932;-72
2021/10/19 07:35:28;;;;;;;;;;;10.50;99.90;;;10.16;84.24;96452.41;10562753;28;2053;-73
2021/10/19 07:40:31;;;;;;;;;;;10.80;99.90;;;10.42;81.13;96450.78;10571156;28;1917;-74
2021/10/19 07:45:34;;;;;;;;;;;11.00;99.90;;;10.72;78.88;96455.59;10567981;28;1898;-73
2021/10/19 07:50:37;;;;;;;;;;;11.20;99.90;;;10.91;80.64;96458.69;10567299;28;1934;-73
2021/10/19 07:55:40;;;;;;;;;;;11.50;99.90;;;11.06;77.73;96460.66;10571763;28;2107;-74
2021/10/19 08:00:43;;;;;;;;;;;11.70;99.90;;;11.15;76.98;96458.31;10569313;28;1961;-75
2021/10/19 08:05:46;;;;;;;;;;;11.90;99.90;;;11.25;76.46;96475.31;10548255;28;2067;-72
2021/10/19 08:10:50;;;;;;;;;;;12.00;99.90;;;11.68;74.35;96489.53;10551207;28;1977;-74
2021/10/19 08:15:53;;;;;;;;;;;12.20;99.90;;;12.02;72.78;96489.16;10567384;28;2325;-74
2021/10/19 08:20:56;;;;;;;;;;;12.60;99.90;;;12.34;71.33;96492.50;10576721;27;1934;-73
2021/10/19 08:25:59;;;;;;;;;;;12.90;99.90;;;12.12;71.89;96511.56;10576846;28;2001;-74
2021/10/19 08:31:02;;;;;;;;;;;13.00;99.90;;;12.30;71.84;96502.16;10575327;28;1901;-74
2021/10/19 08:36:07;;;;;;;;;;;13.10;99.90;;;12.08;70.90;96509.66;10571952;28;1905;-75
2021/10/19 08:41:10;;;;;;;;;;;13.00;99.90;;;11.97;70.38;96516.09;10557199;28;1879;-73
2021/10/19 08:46:13;;;;;;;;;;;12.90;99.90;;;12.13;70.06;96509.66;10556184;27;2017;-73
2021/10/19 08:51:16;;;;;;;;;;;12.90;99.90;;;12.24;70.56;96503.22;10574984;27;1890;-74
2021/10/19 08:56:19;;;;;;;;;;;12.90;99.90;;;12.29;69.68;96514.03;10570189;28;2124;-74
2021/10/19 09:01:22;;;;;;;;;;;13.10;99.90;;;12.51;69.64;96510.28;10575537;28;1970;-73
2021/10/19 09:06:25;;;;;;;;;;;13.20;99.90;;;12.64;69.25;96507.06;10573866;27;1930;-74
2021/10/19 09:11:28;;;;;;;;;;;13.30;99.90;;;12.78;70.17;96504.66;10578508;27;1909;-75
2021/10/19 09:16:31;;;;;;;;;;;13.40;99.90;;;12.94;70.06;96511.69;10574903;28;1910;-75
2021/10/19 09:21:38;;;;;;;;;;;13.60;99.90;;;13.07;66.81;96502.22;10573051;28;1888;-74
2021/10/19 09:26:41;;;;;;;;;;;13.80;99.90;;;13.30;65.82;96508.97;10572214;28;1858;-74
2021/10/19 09:31:43;;;;;;;;;;;14.00;99.90;;;13.47;65.79;96514.88;10575487;28;1887;-74
2021/10/19 09:36:47;;;;;;;;;;;14.10;99.90;;;13.64;66.53;96515.38;10595658;27;2056;-73
2021/10/19 09:41:49;;;;;;;;;;;14.20;99.90;;;14.04;64.39;96510.91;10614235;28;1862;-74
2021/10/19 09:46:52;;;;;;;;;;;14.50;99.90;;;14.33;63.12;96517.25;10612601;28;1586;-73
2021/10/19 09:51:55;;;;;;;;;;;14.70;99.90;;;14.50;62.82;96510.66;10615603;27;1847;-73
2021/10/19 09:56:59;;;;;;;;;;;15.00;99.90;;;14.55;61.65;96522.28;10577625;27;1983;-74
2021/10/19 10:02:02;;;;;;;;;;;15.10;99.90;;;14.52;63.25;96519.34;10578973;28;2012;-74
2021/10/19 10:07:05;;;;;;;;;;;15.20;99.90;;;14.28;68.81;96517.25;10570971;28;2160;-75
2021/10/19 10:12:08;;;;;;;;;;;15.20;99.90;;;14.49;68.29;96504.44;10575446;28;1877;-75
2021/10/19 10:17:11;;;;;;;;;;;15.20;99.90;;;14.50;70.95;96506.06;10585032;28;1949;-74
2021/10/19 10:22:14;;;;;;;;;;;15.20;99.90;;;14.28;71.54;96514.56;10593617;28;2084;-73
2021/10/19 10:27:17;;;;;;;;;;;15.20;99.90;;;14.27;74.08;96499.44;10609002;28;1792;-74
2021/10/19 10:32:19;;;;;;;;;;;15.10;99.90;;;14.40;76.56;96508.81;10585802;28;1957;-75
2021/10/19 10:37:22;;;;;;;;;;;15.10;99.90;;;14.28;75.18;96502.94;10556169;27;1997;-75
2021/10/19 10:42:26;;;;;;;;;;;15.10;99.90;;;14.52;72.39;96503.91;10570858;27;1887;-74
2021/10/19 10:47:28;;;;;;;;;;;15.20;99.90;;;14.74;75.25;96505.38;10573822;28;2087;-73
2021/10/19 10:52:31;;;;;;;;;;;15.30;99.90;;;15.04;70.88;96494.31;10569778;28;1948;-74
2021/10/19 10:57:34;;;;;;;;;;;15.50;99.90;;;15.37;68.43;96487.22;10566910;27;2206;-74
2021/10/19 11:02:37;;;;;;;;;;;15.90;99.90;;;15.86;67.06;96477.22;10568207;28;1982;-73
2021/10/19 11:07:40;;;;;;;;;;;16.20;99.90;;;16.26;65.82;96475.09;10551919;28;2026;-75
2021/10/19 11:12:44;;;;;;;;;;;16.50;99.90;;;16.38;65.69;96465.41;10551792;28;1867;-71
2021/10/19 11:17:48;;;;;;;;;;;16.80;99.90;;;16.06;60.93;96473.44;10570852;28;2083;-74
2021/10/19 11:22:51;;;;;;;;;;;16.90;99.90;;;15.87;60.64;96468.81;10570596;28;1973;-75
2021/10/19 11:27:54;;;;;;;;;;;16.70;99.90;;;16.30;59.27;96470.69;10568037;28;1886;-75
2021/10/19 11:32:57;;;;;;;;;;;16.80;99.90;;;16.14;57.31;96472.78;10561710;28;1821;-74
2021/10/19 11:38:00;;;;;;;;;;;16.90;99.90;;;16.59;56.13;96465.09;10569757;28;1940;-76
2021/10/19 11:43:03;;;;;;;;;;;17.10;99.90;;;16.97;55.89;96463.16;10566602;28;2283;-74
2021/10/19 11:48:06;;;;;;;;;;;17.40;99.90;;;17.33;54.05;96457.09;10565481;28;1838;-73
2021/10/19 11:53:10;;;;;;;;;;;17.70;99.90;;;17.46;53.04;96453.59;10582124;27;1904;-75
2021/10/19 11:58:13;;;;;;;;;;;17.90;99.90;;;17.25;54.06;96453.19;10576885;28;1913;-76
2021/10/19 12:03:16;;;;;;;;;;;17.90;99.90;;;17.42;53.89;96447.16;10562158;27;2109;-75
2021/10/19 12:08:19;;;;;;;;;;;18.00;99.90;;;17.05;54.02;96448.91;10579923;27;1808;-75
2021/10/19 12:13:22;;;;;;;;;;;17.80;99.90;;;17.37;53.15;96444.50;10561303;27;1851;-75
2021/10/19 12:18:25;;;;;;;;;;;17.90;99.90;;;17.38;54.05;96440.72;10572622;28;2088;-76
2021/10/19 12:23:29;;;;;;;;;;;18.00;99.90;;;17.40;54.87;96438.50;10572777;28;1819;-74
2021/10/19 12:28:32;;;;;;;;;;;17.90;99.90;;;17.46;52.22;96431.84;10557169;27;1878;-74
2021/10/19 12:33:35;;;;;;;;;;;18.00;99.90;;;17.37;54.75;96434.47;10569486;27;3274;-75
2021/10/19 12:38:38;;;;;;;;;;;18.10;99.90;;;17.12;53.70;96422.16;10578188;27;2405;-72
2021/10/19 12:43:41;;;;;;;;;;;17.90;99.90;;;17.19;54.24;96417.16;10574028;28;2533;-74
2021/10/19 12:48:45;;;;;;;;;;;17.90;99.90;;;17.05;52.90;96424.47;10569994;28;2383;-74
2021/10/19 12:53:49;;;;;;;;;;;17.80;99.90;;;16.78;54.41;96421.66;10569710;28;2266;-75
2021/10/19 12:58:54;;;;;;;;;;;17.80;99.90;;;16.87;54.36;96425.31;10575654;27;1984;-74
2021/10/19 13:03:57;;;;;;;;;;;17.80;99.90;;;16.88;55.68;96429.66;10569618;28;1878;-75
2021/10/19 13:09:00;;;;;;;;;;;17.60;99.90;;;16.64;56.11;96433.25;10576069;27;2450;-74
2021/10/19 13:14:03;;;;;;;;;;;17.60;99.90;;;16.57;56.94;96416.53;10572449;28;1874;-73
2021/10/19 13:19:07;;;;;;;;;;;17.40;99.90;;;16.36;57.75;96416.06;10569763;28;1909;-76
2021/10/19 13:24:10;;;;;;;;;;;17.40;99.90;;;16.41;58.92;96418.72;10571738;28;1929;-75
2021/10/19 13:29:13;;;;;;;;;;;17.30;99.90;;;16.53;57.69;96407.38;10574825;28;2405;-74
2021/10/19 13:34:16;;;;;;;;;;;17.30;99.90;;;16.31;59.06;96407.19;10572095;28;1933;-74
2021/10/19 13:39:20;;;;;;;;;;;17.20;99.90;;;16.24;60.62;96395.91;10576514;27;1913;-74
2021/10/19 13:44:23;;;;;;;;;;;17.20;99.90;;;16.14;59.80;96397.66;10567440;28;1934;-75
2021/10/19 13:49:28;;;;;;;;;;;17.10;99.90;;;16.22;59.71;96398.88;10568901;28;1969;-75
2021/10/19 13:54:33;;;;;;;;;;;17.10;99.90;;;16.05;60.21;96394.00;10569642;27;1922;-75
2021/10/19 13:59:36;;;;;;;;;;;17.00;99.90;;;16.22;60.07;96401.59;10572838;28;1906;-74
2021/10/19 14:04:39;;;;;;;;;;;17.00;99.90;;;16.41;60.36;96397.00;10568600;28;1811;-73
2021/10/19 14:09:42;;;;;;;;;;;17.10;99.90;;;16.58;59.14;96391.00;10552431;28;2429;-74
2021/10/19 14:14:45;;;;;;;;;;;17.20;99.90;;;16.63;59.51;96390.94;10566943;28;1968;-75
2021/10/19 14:19:52;;;;;;;;;;;17.40;99.90;;;16.38;59.86;96375.88;10573320;28;1983;-75
2021/10/19 14:24:55;;;;;;;;;;;17.40;99.90;;;16.38;59.70;96375.06;10570673;28;1925;-75
2021/10/19 14:29:58;;;;;;;;;;;17.20;99.90;;;16.42;58.90;96376.09;10569611;28;1918;-75
2021/10/19 14:35:06;;;;;;;;;;;17.20;99.90;;;15.98;61.14;96373.78;10564456;28;1891;-74
2021/10/19 14:40:09;;;;;;;;;;;17.10;99.90;;;15.81;60.93;96379.69;10568253;27;2316;-75
2021/10/19 14:45:12;;;;;;;;;;;16.90;99.90;;;15.58;60.73;96382.13;10568246;28;1878;-74
2021/10/19 14:50:15;;;;;;;;;;;16.70;99.90;;;15.36;61.59;96376.44;10544890;28;1892;-73
2021/10/19 14:55:18;;;;;;;;;;;16.50;99.90;;;15.11;60.89;96377.53;10572679;27;1953;-74
2021/10/19 15:00:21;;;;;;;;;;;16.30;99.90;;;15.17;61.76;96384.50;10569861;27;1975;-74
2021/10/19 15:05:23;;;;;;;;;;;16.20;99.90;;;15.03;61.81;96378.19;10567431;28;1937;-75
2021/10/19 15:10:27;;;;;;;;;;;16.10;99.90;;;14.87;63.30;96370.19;10572164;28;1949;-73
2021/10/19 15:15:29;;;;;;;;;;;16.00;99.90;;;15.06;61.91;96364.06;10548008;28;1890;-75
2021/10/19 15:20:32;;;;;;;;;;;16.00;99.90;;;14.91;62.60;96370.44;10570593;28;2191;-73
2021/10/19 15:25:36;;;;;;;;;;;16.00;99.90;;;14.81;63.26;96357.00;10547957;28;1934;-75
2021/10/19 15:30:39;;;;;;;;;;;15.90;99.90;;;14.72;64.56;96366.84;10570460;28;1946;-75
2021/10/19 15:35:42;;;;;;;;;;;15.80;99.90;;;14.74;65.45;96361.94;10546216;28;1979;-75
2021/10/19 15:40:45;;;;;;;;;;;15.80;99.90;;;14.65;64.35;96347.44;10551002;28;1934;-76
2021/10/19 15:45:48;;;;;;;;;;;15.70;99.90;;;14.60;65.08;96340.97;10548376;28;1874;-74
2021/10/19 15:50:51;;;;;;;;;;;15.60;99.90;;;14.66;63.93;96335.50;10566518;28;1915;-75
2021/10/19 15:55:54;;;;;;;;;;;15.60;99.90;;;14.55;64.84;96329.38;10567050;28;1871;-75
2021/10/19 16:00:57;;;;;;;;;;;15.60;99.90;;;14.41;65.17;96340.03;10568194;28;2027;-75
2021/10/19 16:06:00;;;;;;;;;;;15.50;99.90;;;14.40;65.35;96338.41;10566307;28;1948;-74
2021/10/19 16:11:03;;;;;;;;;;;15.50;99.90;;;14.31;66.35;96349.06;10571005;28;1863;-75
2021/10/19 16:16:06;;;;;;;;;;;15.40;99.90;;;14.33;66.25;96344.16;10561703;28;1949;-74
2021/10/19 16:21:10;;;;;;;;;;;15.30;99.90;;;14.27;66.64;96349.91;10567758;28;1930;-75
2021/10/19 16:26:19;;;;;;;;;;;15.30;99.90;;;14.26;67.32;96359.09;10567203;28;1906;-75
2021/10/19 16:31:22;;;;;;;;;;;15.30;99.90;;;14.23;68.50;96365.06;10569345;28;1898;-75
2021/10/19 16:36:27;;;;;;;;;;;15.30;99.90;;;14.25;69.03;96368.28;10566096;28;2271;-74
2021/10/19 16:41:30;;;;;;;;;;;15.30;99.90;;;14.22;68.19;96368.84;10574974;27;2321;-74
2021/10/19 16:46:33;;;;;;;;;;;15.30;99.90;;;14.23;69.06;96367.75;10572739;28;1972;-74
2021/10/19 16:51:35;;;;;;;;;;;15.30;99.90;;;14.26;70.10;96367.22;10572709;28;1879;-74
2021/10/19 16:56:40;;;;;;;;;;;15.30;99.90;;;14.23;69.73;96356.94;10572027;28;1906;-75
2021/10/19 17:01:47;;;;;;;;;;;15.20;99.90;;;14.14;69.38;96350.53;10576751;28;1914;-75
2021/10/19 17:06:50;;;;;;;;;;;15.20;99.90;;;14.09;68.57;96342.47;10566526;27;1874;-74
2021/10/19 17:11:53;;;;;;;;;;;15.20;99.90;;;14.06;69.14;96344.66;10572647;28;1898;-75
2021/10/19 17:16:56;;;;;;;;;;;15.10;99.90;;;13.98;70.32;96336.31;10573011;28;1930;-74
2021/10/19 17:21:59;;;;;;;;;;;15.10;99.90;;;13.91;71.22;96323.13;10556883;27;2009;-76
2021/10/19 17:27:03;;;;;;;;;;;15.00;99.90;;;13.86;71.07;96327.75;10570897;28;1839;-76
2021/10/19 17:32:06;;;;;;;;;;;14.90;99.90;;;13.81;71.49;96315.09;10576362;27;2318;-74
2021/10/19 17:37:09;;;;;;;;;;;14.90;99.90;;;13.73;71.54;96316.47;10574528;28;1921;-74
2021/10/19 17:42:12;;;;;;;;;;;14.80;99.90;;;13.72;72.08;96316.75;10572472;28;1973;-75
2021/10/19 17:47:15;;;;;;;;;;;14.80;99.90;;;13.64;72.10;96303.84;10554054;27;1973;-75
2021/10/19 17:52:18;;;;;;;;;;;14.70;99.90;;;13.63;71.15;96310.34;10568139;27;3289;-75
2021/10/19 17:57:21;;;;;;;;;;;14.70;99.90;;;13.57;71.19;96295.25;10565797;28;2449;-74
2021/10/19 18:02:24;;;;;;;;;;;14.60;99.90;;;13.64;70.30;96299.25;10572829;28;1917;-75
2021/10/19 18:07:27;;;;;;;;;;;14.60;99.90;;;13.61;70.02;96293.59;10546698;28;2298;-74
2021/10/19 18:12:30;;;;;;;;;;;14.60;99.90;;;13.60;70.09;96292.78;10568879;27;1894;-74
2021/10/19 18:17:33;;;;;;;;;;;14.70;99.90;;;13.60;69.99;96295.50;10572063;28;2317;-76
2021/10/19 18:22:37;;;;;;;;;;;14.60;99.90;;;13.66;70.06;96301.66;10570701;27;2290;-73
2021/10/19 18:27:41;;;;;;;;;;;14.70;99.90;;;13.64;70.17;96288.44;10573180;28;1874;-72
2021/10/19 18:32:44;;;;;;;;;;;14.70;99.90;;;13.59;69.73;96276.88;10570980;28;2278;-75
2021/10/19 18:37:47;;;;;;;;;;;14.70;99.90;;;13.60;70.40;96273.06;10555007;28;1875;-74
2021/10/19 18:42:50;;;;;;;;;;;14.70;99.90;;;13.55;70.96;96273.09;10572419;28;1909;-76
2021/10/19 18:47:54;;;;;;;;;;;14.60;99.90;;;13.53;71.23;96263.38;10571280;28;1413;-76
2021/10/19 18:52:57;;;;;;;;;;;14.60;99.90;;;13.61;70.93;96271.97;10549877;27;3319;-75
2021/10/19 18:58:02;;;;;;;;;;;14.60;99.90;;;13.60;71.48;96273.06;10563364;27;2373;-73
2021/10/19 19:03:05;;;;;;;;;;;14.60;99.90;;;13.55;71.61;96267.69;10574352;27;1918;-76
2021/10/19 19:08:08;;;;;;;;;;;14.60;99.90;;;13.55;72.23;96263.13;10575598;28;2285;-75
2021/10/19 19:13:11;;;;;;;;;;;14.60;99.90;;;13.53;73.18;96260.69;10570617;28;1929;-75
2021/10/19 19:18:14;;;;;;;;;;;14.50;99.90;;;13.49;73.33;96265.06;10566996;28;1890;-73
2021/10/19 19:23:17;;;;;;;;;;;14.50;99.90;;;13.45;74.67;96255.09;10571068;28;1910;-76
2021/10/19 19:28:20;;;;;;;;;;;14.50;99.90;;;13.53;74.37;96251.78;10564370;28;2222;-75
2021/10/19 19:33:43;;;;;;;;;;;14.50;99.90;;;13.49;74.54;96243.44;10562345;28;1989;-76
2021/10/19 19:39:06;;;;;;;;;;;14.50;99.90;;;13.49;75.13;96240.75;10567282;28;2025;-74
2021/10/19 19:44:09;;;;;;;;;;;14.50;99.90;;;13.56;75.52;96231.53;10565519;28;2031;-75
2021/10/19 19:49:12;;;;;;;;;;;14.50;99.90;;;13.60;75.32;96227.97;10563585;28;2115;-74
2021/10/19 19:54:15;;;;;;;;;;;14.60;99.90;;;13.56;75.60;96226.13;10550332;28;1717;-73
2021/10/19 19:59:18;;;;;;;;;;;14.60;99.90;;;13.53;75.86;96230.97;10583461;28;2176;-75
2021/10/19 20:04:21;;;;;;;;;;;14.60;99.90;;;13.55;76.17;96229.88;10553227;28;1983;-74
2021/10/19 20:09:24;;;;;;;;;;;14.60;99.90;;;13.56;76.34;96234.22;10575783;28;2016;-75
2021/10/19 20:14:27;;;;;;;;;;;14.60;99.90;;;13.59;77.16;96222.84;10580750;28;2247;-75
2021/10/19 20:19:30;;;;;;;;;;;14.60;99.90;;;13.58;77.01;96213.94;10579275;28;1921;-75
2021/10/19 20:24:33;;;;;;;;;;;14.60;99.90;;;13.63;77.08;96216.59;10590235;28;2320;-74
2021/10/19 20:29:37;;;;;;;;;;;14.60;99.90;;;13.57;77.97;96217.72;10588445;27;2009;-75
2021/10/19 20:34:40;;;;;;;;;;;14.60;99.90;;;13.55;78.68;96206.41;10581763;27;2028;-74
2021/10/19 20:39:43;;;;;;;;;;;14.60;99.90;;;13.60;78.78;96205.53;10579075;28;1953;-74
2021/10/19 20:44:47;;;;;;;;;;;14.60;99.90;;;13.53;78.57;96205.88;10575889;27;2226;-74
2021/10/19 20:49:49;;;;;;;;;;;14.60;99.90;;;13.58;78.81;96194.22;10575469;27;2495;-74
2021/10/19 20:54:53;;;;;;;;;;;14.60;99.90;;;13.59;79.04;96187.72;10575111;27;1840;-75
2021/10/19 20:59:56;;;;;;;;;;;14.60;99.90;;;13.56;79.48;96191.81;10574172;28;1981;-75
2021/10/19 21:04:59;;;;;;;;;;;14.60;99.90;;;13.53;79.57;96197.75;10590203;28;1855;-74
2021/10/19 21:10:03;;;;;;;;;;;14.50;99.90;;;13.53;79.53;96185.06;10614390;28;1954;-72
2021/10/19 21:15:06;;;;;;;;;;;14.50;99.90;;;13.53;79.68;96187.75;10599557;28;1926;-73
2021/10/19 21:20:09;;;;;;;;;;;14.50;99.90;;;13.55;79.85;96181.25;10597079;28;1984;-74
2021/10/19 21:25:12;;;;;;;;;;;14.50;99.90;;;13.58;79.60;96183.41;10582489;27;1818;-75
2021/10/19 21:30:15;;;;;;;;;;;14.50;99.90;;;13.56;80.47;96177.50;10578714;28;2058;-75
2021/10/19 21:35:17;;;;;;;;;;;14.60;99.90;;;13.56;80.25;96177.50;10568517;28;1909;-74
2021/10/19 21:40:20;;;;;;;;;;;14.60;99.90;;;13.50;81.02;96174.84;10576581;28;1959;-74
2021/10/19 21:45:23;;;;;;;;;;;14.50;99.90;;;13.47;81.25;96174.59;10583381;27;1862;-75
2021/10/19 21:50:26;;;;;;;;;;;14.50;99.90;;;13.38;81.52;96174.38;10597638;27;2260;-73
2021/10/19 21:55:29;;;;;;;;;;;14.40;99.90;;;13.24;82.63;96166.13;10597825;28;1874;-74
2021/10/19 22:00:32;;;;;;;;;;;14.30;99.90;;;13.03;83.73;96155.69;10579720;27;2038;-74
2021/10/19 22:05:35;;;;;;;;;;;14.20;99.90;;;12.89;85.12;96159.00;10565208;28;1914;-74
2021/10/19 22:10:38;;;;;;;;;;;14.10;99.90;;;12.88;85.15;96162.00;10573876;28;1834;-74
2021/10/19 22:15:41;;;;;;;;;;;14.00;99.90;;;12.93;84.23;96165.47;10582495;28;1946;-74
2021/10/19 22:20:44;;;;;;;;;;;14.00;99.90;;;12.96;84.59;96158.69;10569034;28;1930;-75
2021/10/19 22:31:07;;;;;;;;;;;13.90;99.90;;;12.69;85.71;96154.53;10568891;28;1843;-74
2021/10/19 22:36:10;;;;;;;;;;;13.90;99.90;;;12.45;87.50;96154.38;10566302;27;1760;-74
2021/10/19 22:41:13;;;;;;;;;;;13.70;99.90;;;12.26;89.31;96156.06;10554214;28;1898;-74
2021/10/19 22:46:16;;;;;;;;;;;13.50;99.90;;;11.99;90.85;96156.41;10551396;27;1869;-74
2021/10/19 22:51:19;;;;;;;;;;;13.30;99.90;;;11.85;92.33;96145.38;10571275;28;1966;-75
2021/10/19 22:56:21;;;;;;;;;;;13.20;99.90;;;11.81;92.42;96138.91;10566706;28;2246;-73
2021/10/19 23:01:24;;;;;;;;;;;13.00;99.90;;;11.64;94.11;96132.97;10572500;28;1910;-74
2021/10/19 23:06:27;;;;;;;;;;;12.90;99.90;;;11.58;94.36;96139.47;10548191;28;2044;-75
2021/10/19 23:11:30;;;;;;;;;;;12.80;99.90;;;11.50;95.70;96127.34;10573394;27;1787;-74
2021/10/19 23:16:33;;;;;;;;;;;12.70;99.90;;;11.35;96.96;96136.25;10569789;28;1843;-74
2021/10/19 23:21:36;;;;;;;;;;;12.60;99.90;;;11.23;97.98;96119.56;10573112;28;1910;-75
2021/10/19 23:26:39;;;;;;;;;;;12.60;99.90;;;11.10;98.79;96128.16;10574662;28;1866;-74